Time;durP1;ratioP1;P1;durP2;ratioP2;P2;SDS_P1;SDS_P2;PMS_P1;PMS_P2;Temp;Humidity;BMP_temperature;BMP_pressure;BME280_temperature;BME280_humidity;BME280_pressure;Samples;Min_cycle;Max_cycle;Signal;HPM_P1;HPM_P2
2023/06/26 00:00:08;;;;;;;10.73;8.32;;;;;;;22.07;62.19;99790.91;4456951;32;32760;-69
2023/06/26 00:02:35;;;;;;;12.43;8.35;;;;;;;21.80;63.71;99793.56;4475907;32;33886;-69
2023/06/26 00:05:04;;;;;;;10.93;8.37;;;;;;;21.37;66.14;99793.53;4474651;32;33510;-68
2023/06/26 00:07:34;;;;;;;9.75;8.07;;;;;;;21.33;66.11;99791.78;4477256;32;33137;-69
2023/06/26 00:10:03;;;;;;;10.60;8.10;;;;;;;21.42;66.17;99785.63;4460817;32;33284;-69
2023/06/26 00:12:31;;;;;;;11.63;8.45;;;;;;;21.52;64.79;99781.31;4468279;32;32913;-69
2023/06/26 00:15:00;;;;;;;10.50;8.38;;;;;;;21.56;64.72;99783.06;4470143;32;33604;-69
2023/06/26 00:17:27;;;;;;;10.75;8.38;;;;;;;21.69;64.31;99783.91;4468053;32;33508;-69
2023/06/26 00:19:55;;;;;;;10.75;8.20;;;;;;;21.62;63.89;99788.31;4468621;32;33573;-69
2023/06/26 00:22:22;;;;;;;11.30;8.35;;;;;;;21.62;64.02;99788.31;4457323;32;32810;-69
2023/06/26 00:24:50;;;;;;;11.07;8.68;;;;;;;21.56;63.96;99783.06;4478525;32;33171;-69
2023/06/26 00:27:17;;;;;;;10.52;8.57;;;;;;;21.66;63.91;99779.53;4477151;32;33374;-69
2023/06/26 00:29:45;;;;;;;9.75;8.35;;;;;;;21.69;63.30;99784.81;4472283;32;34502;-69
2023/06/26 00:32:12;;;;;;;11.90;8.77;;;;;;;21.69;63.39;99784.81;4479768;32;32904;-69
2023/06/26 00:34:40;;;;;;;10.83;8.57;;;;;;;21.80;63.02;99787.41;4479445;32;34603;-69
2023/06/26 00:37:08;;;;;;;11.48;8.68;;;;;;;21.61;63.66;99778.63;4466489;32;33767;-68
2023/06/26 00:39:35;;;;;;;12.13;8.60;;;;;;;21.54;63.78;99788.31;4462037;32;34030;-69
2023/06/26 00:42:03;;;;;;;11.57;8.50;;;;;;;21.50;63.34;99793.56;4471409;32;34040;-69
2023/06/26 00:44:33;;;;;;;10.95;8.40;;;;;;;21.57;63.26;99790.06;4479317;32;34261;-69
2023/06/26 00:47:01;;;;;;;11.45;8.55;;;;;;;21.31;64.32;99798.81;4478192;32;33959;-69
2023/06/26 00:49:29;;;;;;;11.20;8.35;;;;;;;21.57;63.07;99792.69;4481132;32;33572;-69
2023/06/26 00:51:57;;;;;;;11.80;8.68;;;;;;;21.31;64.84;99793.53;4481320;32;34173;-69
2023/06/26 00:54:24;;;;;;;11.50;8.47;;;;;;;21.13;65.89;99793.50;4454031;32;32128;-69
2023/06/26 00:56:52;;;;;;;10.40;8.57;;;;;;;20.93;66.74;99786.44;4479835;32;34374;-69
2023/06/26 00:59:19;;;;;;;11.77;8.52;;;;;;;20.87;66.66;99786.44;4480751;32;33760;-69
2023/06/26 01:01:48;;;;;;;10.98;9.30;;;;;;;21.26;64.26;99784.75;4476258;32;32744;-69
2023/06/26 01:04:18;;;;;;;11.75;8.93;;;;;;;20.97;66.00;99788.22;4474833;32;34483;-68
2023/06/26 01:06:48;;;;;;;10.63;8.57;;;;;;;20.92;66.03;99783.81;4479064;32;33697;-69
2023/06/26 01:09:18;;;;;;;11.95;9.00;;;;;;;20.55;68.02;99779.28;4465180;32;32473;-69
2023/06/26 01:11:45;;;;;;;11.23;8.57;;;;;;;20.68;67.60;99776.72;4469601;32;32625;-69
2023/06/26 01:14:14;;;;;;;11.60;8.82;;;;;;;20.84;66.67;99777.66;4470885;32;33037;-69
2023/06/26 01:16:47;;;;;;;11.88;9.10;;;;;;;20.60;67.78;99767.03;4466966;32;32782;-69
2023/06/26 01:19:28;;;;;;;11.68;8.77;;;;;;;20.47;68.20;99765.22;4476905;32;32529;-69
2023/06/26 01:22:20;;;;;;;12.13;8.85;;;;;;;20.51;68.15;99766.97;4465872;32;32809;-68
2023/06/26 01:25:03;;;;;;;11.75;8.40;;;;;;;20.72;67.10;99766.19;4448164;32;32675;-69
2023/06/26 01:27:35;;;;;;;11.23;8.48;;;;;;;21.15;64.67;99766.31;4441250;32;33195;-68
2023/06/26 01:30:04;;;;;;;10.25;8.32;;;;;;;21.17;64.21;99756.66;4443936;32;33944;-69
2023/06/26 01:32:32;;;;;;;10.88;8.63;;;;;;;20.87;65.54;99754.84;4439646;32;32693;-68
2023/06/26 01:35:01;;;;;;;12.37;8.75;;;;;;;20.56;66.97;99765.25;4450095;32;34075;-69
2023/06/26 01:37:29;;;;;;;9.75;8.20;;;;;;;20.72;66.06;99757.44;4447566;32;33342;-68
2023/06/26 01:39:57;;;;;;;12.27;8.55;;;;;;;20.79;65.59;99756.59;4449700;32;33235;-69
2023/06/26 01:42:25;;;;;;;12.37;8.30;;;;;;;20.73;65.92;99756.56;4449584;32;32838;-69
2023/06/26 01:44:54;;;;;;;10.43;8.02;;;;;;;20.75;65.51;99766.22;4439870;32;33753;-69
2023/06/26 01:47:26;;;;;;;11.85;8.05;;;;;;;21.19;63.18;99757.53;4439733;32;33342;-69
2023/06/26 01:50:06;;;;;;;10.98;8.05;;;;;;;21.43;60.02;99755.78;4444774;32;33569;-68
2023/06/26 01:53:00;;;;;;;10.50;8.20;;;;;;;21.08;61.89;99759.28;4448905;32;32201;-68
2023/06/26 01:55:35;;;;;;;11.55;8.82;;;;;;;20.42;65.64;99752.03;4438454;32;33121;-69
2023/06/26 01:58:03;;;;;;;11.27;8.95;;;;;;;20.34;66.44;99763.38;4438060;32;33232;-69
2023/06/26 02:00:31;;;;;;;12.37;9.25;;;;;;;20.51;65.97;99764.34;4445385;32;33512;-68
2023/06/26 02:02:59;;;;;;;11.30;8.65;;;;;;;20.37;66.84;99759.03;4441531;32;34042;-69
2023/06/26 02:05:27;;;;;;;12.45;8.98;;;;;;;20.54;66.24;99755.59;4446753;32;33805;-68
2023/06/26 02:07:54;;;;;;;11.15;8.75;;;;;;;20.40;66.70;99752.91;4447247;32;33657;-69
2023/06/26 02:10:22;;;;;;;11.43;8.77;;;;;;;20.33;66.77;99756.41;4443767;32;33955;-69
2023/06/26 02:12:49;;;;;;;10.95;8.48;;;;;;;20.65;65.05;99760.91;4439594;32;34079;-68
2023/06/26 02:15:17;;;;;;;11.27;8.75;;;;;;;20.98;63.39;99758.38;4447546;32;34198;-69
2023/06/26 02:17:48;;;;;;;11.82;8.73;;;;;;;20.50;64.40;99749.44;4443037;32;33824;-69
2023/06/26 02:20:15;;;;;;;10.55;8.65;;;;;;;20.80;63.75;99753.97;4442371;32;33504;-68
2023/06/26 02:22:43;;;;;;;12.85;9.15;;;;;;;20.81;63.31;99754.84;4447694;32;33543;-68
2023/06/26 02:25:12;;;;;;;11.90;8.70;;;;;;;20.44;65.89;99759.94;4469651;32;33702;-68
2023/06/26 02:27:39;;;;;;;11.80;8.63;;;;;;;20.28;66.14;99763.38;4460283;32;34270;-68
2023/06/26 02:30:08;;;;;;;11.02;8.73;;;;;;;20.30;66.79;99761.62;4473939;32;34405;-68
2023/06/26 02:32:36;;;;;;;11.77;8.60;;;;;;;19.98;68.18;99759.72;4467994;32;32698;-69
2023/06/26 02:35:04;;;;;;;11.37;8.90;;;;;;;19.99;68.02;99766.72;4468544;32;33752;-69
2023/06/26 02:37:31;;;;;;;10.25;8.23;;;;;;;19.95;68.25;99772.84;4477145;32;33308;-69
2023/06/26 02:39:59;;;;;;;11.12;8.30;;;;;;;20.44;66.59;99775.72;4476663;32;34393;-69
2023/06/26 02:42:27;;;;;;;10.80;8.40;;;;;;;20.57;66.37;99782.81;4469032;32;33189;-69
2023/06/26 02:44:54;;;;;;;11.52;8.48;;;;;;;20.52;66.81;99779.28;4476537;32;33575;-68
2023/06/26 02:47:24;;;;;;;10.90;8.20;;;;;;;20.31;67.44;99779.19;4471572;32;32661;-68
2023/06/26 02:49:52;;;;;;;10.50;8.27;;;;;;;20.31;67.76;99780.06;4468983;32;34545;-68
2023/06/26 02:52:20;;;;;;;11.48;8.48;;;;;;;20.27;67.67;99775.66;4454459;32;34107;-68
2023/06/26 02:54:47;;;;;;;11.68;8.05;;;;;;;19.92;68.49;99775.47;4469394;32;33308;-69
2023/06/26 02:57:16;;;;;;;10.98;8.30;;;;;;;20.31;65.13;99773.91;4475840;32;33829;-68
2023/06/26 02:59:44;;;;;;;11.07;8.65;;;;;;;19.95;67.93;99785.97;4480105;32;33662;-68
2023/06/26 03:02:12;;;;;;;12.77;8.90;;;;;;;20.22;66.73;99785.25;4472643;32;34478;-70
2023/06/26 03:04:40;;;;;;;10.43;8.57;;;;;;;20.29;65.98;99780.94;4477651;32;34471;-69
2023/06/26 03:07:07;;;;;;;10.65;8.43;;;;;;;20.58;63.92;99776.66;4468011;32;34465;-68
2023/06/26 03:09:36;;;;;;;11.00;8.55;;;;;;;20.34;65.43;99780.06;4479279;32;33670;-69
2023/06/26 03:12:04;;;;;;;11.77;9.13;;;;;;;19.91;67.77;99778.94;4480265;32;33886;-69
2023/06/26 03:14:32;;;;;;;10.73;8.55;;;;;;;20.01;66.25;99780.75;4471942;31;34397;-68
2023/06/26 03:17:03;;;;;;;12.65;8.82;;;;;;;19.78;69.00;99789.38;4467344;32;34659;-69
2023/06/26 03:19:31;;;;;;;10.40;8.57;;;;;;;19.52;70.01;99790.91;4471593;32;33551;-69
2023/06/26 03:22:00;;;;;;;11.52;8.98;;;;;;;19.47;70.74;99792.59;4466141;32;31457;-69
2023/06/26 03:24:28;;;;;;;10.35;8.30;;;;;;;19.90;68.88;99795.59;4465932;32;33619;-68
2023/06/26 03:26:56;;;;;;;10.70;8.40;;;;;;;19.63;69.84;99799.75;4479411;32;34659;-69
2023/06/26 03:29:24;;;;;;;11.65;8.55;;;;;;;19.66;68.99;99799.75;4471908;32;33728;-69
2023/06/26 03:31:51;;;;;;;11.45;8.60;;;;;;;19.78;67.94;99805.16;4478477;32;32678;-69
2023/06/26 03:34:20;;;;;;;11.77;8.65;;;;;;;19.96;67.82;99804.41;4471865;32;33730;-68
2023/06/26 03:36:47;;;;;;;10.32;8.10;;;;;;;19.66;68.73;99802.37;4468450;32;33308;-69
2023/06/26 03:39:15;;;;;;;11.75;8.63;;;;;;;20.15;64.78;99788.75;4467290;32;33416;-69
2023/06/26 03:41:43;;;;;;;12.55;8.25;;;;;;;20.29;64.58;99791.44;4462387;32;31959;-69
2023/06/26 03:44:10;;;;;;;13.62;9.25;;;;;;;19.82;66.65;99796.41;4468995;32;34517;-69
2023/06/26 03:46:40;;;;;;;11.57;8.27;;;;;;;20.11;65.54;99790.47;4456080;32;32033;-69
2023/06/26 03:49:08;;;;;;;11.97;9.00;;;;;;;19.45;69.38;99803.06;4471463;32;33848;-69
2023/06/26 03:51:38;;;;;;;12.00;8.20;;;;;;;19.55;69.39;99796.19;4473987;32;33463;-69
2023/06/26 03:54:05;;;;;;;10.77;8.10;;;;;;;19.48;68.97;99808.38;4479548;32;34563;-68
2023/06/26 03:56:32;;;;;;;10.20;8.57;;;;;;;19.64;68.49;99812.00;4479680;32;33763;-68
2023/06/26 03:59:00;;;;;;;10.68;8.50;;;;;;;19.89;67.80;99806.97;4477805;32;33712;-68
2023/06/26 04:01:28;;;;;;;11.77;8.40;;;;;;;19.69;68.71;99805.03;4474798;32;32864;-69
2023/06/26 04:03:55;;;;;;;11.63;8.40;;;;;;;19.57;69.09;99812.84;4473955;32;33968;-69
2023/06/26 04:06:23;;;;;;;12.63;8.60;;;;;;;19.71;69.21;99803.31;4471527;32;34609;-69
2023/06/26 04:08:50;;;;;;;10.57;8.27;;;;;;;19.86;67.93;99807.84;4478714;32;33614;-68
2023/06/26 04:11:18;;;;;;;10.63;8.25;;;;;;;19.84;68.22;99805.19;4464071;32;31745;-70
2023/06/26 04:13:47;;;;;;;11.48;8.30;;;;;;;19.76;68.73;99809.53;4474851;32;33223;-68
2023/06/26 04:16:15;;;;;;;10.80;7.83;;;;;;;19.87;68.34;99804.31;4478390;32;33779;-68
2023/06/26 04:18:43;;;;;;;10.87;8.50;;;;;;;19.97;67.97;99807.91;4469941;32;33811;-69
2023/06/26 04:21:12;;;;;;;10.35;7.78;;;;;;;19.88;68.53;99808.72;4469034;32;33368;-69
2023/06/26 04:23:40;;;;;;;11.82;8.40;;;;;;;20.01;68.25;99804.41;4476566;32;33697;-69
2023/06/26 04:26:08;;;;;;;10.05;7.62;;;;;;;20.06;67.92;99810.59;4473365;32;33499;-69
2023/06/26 04:28:36;;;;;;;10.83;8.00;;;;;;;20.14;67.67;99802.75;4462160;32;33116;-69
2023/06/26 04:31:03;;;;;;;10.30;7.93;;;;;;;20.49;66.49;99808.19;4476214;32;33390;-69
2023/06/26 04:33:31;;;;;;;10.07;7.95;;;;;;;20.37;66.88;99808.13;4480767;32;33752;-68
2023/06/26 04:35:59;;;;;;;10.85;7.87;;;;;;;20.62;66.14;99804.78;4480376;32;33921;-69
2023/06/26 04:38:27;;;;;;;10.85;7.60;;;;;;;20.57;66.58;99808.22;4480356;32;33834;-69
2023/06/26 04:40:54;;;;;;;12.60;8.07;;;;;;;20.30;67.29;99804.63;4476321;32;33272;-68
2023/06/26 04:43:22;;;;;;;9.93;7.07;;;;;;;20.46;67.40;99810.81;4478494;32;33216;-69
2023/06/26 04:45:50;;;;;;;10.40;7.45;;;;;;;21.00;64.48;99809.28;4472743;32;33903;-69
2023/06/26 04:48:18;;;;;;;10.25;7.50;;;;;;;20.70;65.78;99814.47;4479988;32;34525;-69
2023/06/26 04:50:53;;;;;;;10.75;7.60;;;;;;;20.84;65.36;99811.88;4467852;32;33160;-69
2023/06/26 04:53:21;;;;;;;10.85;7.85;;;;;;;20.69;66.49;99812.72;4463232;32;34049;-68
2023/06/26 04:55:50;;;;;;;10.82;8.30;;;;;;;20.97;65.81;99814.53;4451164;32;32314;-68
2023/06/26 04:58:18;;;;;;;12.98;8.40;;;;;;;21.12;65.25;99813.72;4472198;32;33377;-69
2023/06/26 05:00:47;;;;;;;9.98;7.90;;;;;;;20.86;66.51;99811.03;4478483;32;34172;-68
2023/06/26 05:03:16;;;;;;;10.93;8.35;;;;;;;21.16;65.70;99814.59;4471990;32;34295;-69
2023/06/26 05:05:44;;;;;;;10.52;8.10;;;;;;;21.21;65.77;99812.84;4472728;32;33354;-69
2023/06/26 05:08:30;;;;;;;12.20;8.40;;;;;;;21.30;65.23;99817.25;4472713;32;33495;-69
2023/06/26 05:10:58;;;;;;;11.40;8.32;;;;;;;21.60;63.42;99808.53;4474594;32;32479;-68
2023/06/26 05:13:26;;;;;;;12.65;8.45;;;;;;;21.69;62.73;99816.44;4473154;32;32624;-68
2023/06/26 05:15:53;;;;;;;11.40;8.02;;;;;;;21.66;63.23;99816.44;4461834;32;33880;-69
2023/06/26 05:18:21;;;;;;;12.25;8.30;;;;;;;21.47;64.20;99815.53;4470710;32;33698;-68
2023/06/26 05:20:49;;;;;;;11.07;8.32;;;;;;;22.08;61.98;99817.28;4473471;32;32939;-69
2023/06/26 05:23:17;;;;;;;12.60;8.07;;;;;;;22.30;61.50;99814.62;4460752;32;33832;-69
2023/06/26 05:25:44;;;;;;;11.38;8.43;;;;;;;22.16;62.19;99806.72;4472026;32;33588;-69
2023/06/26 05:28:15;;;;;;;11.40;8.27;;;;;;;22.19;62.28;99801.41;4461715;32;32931;-69
2023/06/26 05:30:42;;;;;;;13.55;9.05;;;;;;;22.43;61.52;99807.56;4469529;32;32692;-69
2023/06/26 05:33:14;;;;;;;12.48;8.45;;;;;;;22.41;61.69;99807.56;4461898;32;33914;-69
2023/06/26 05:35:42;;;;;;;11.10;8.00;;;;;;;22.44;61.04;99811.94;4462360;32;34331;-69
2023/06/26 05:38:10;;;;;;;12.20;8.32;;;;;;;22.88;59.22;99814.38;4461738;32;34525;-69
2023/06/26 05:40:40;;;;;;;11.82;8.50;;;;;;;23.01;58.85;99815.19;4474902;32;33067;-68
2023/06/26 05:43:09;;;;;;;11.45;8.23;;;;;;;23.12;58.39;99817.78;4468979;32;32605;-69
2023/06/26 05:45:36;;;;;;;12.30;8.77;;;;;;;22.82;60.06;99817.06;4462862;32;33707;-69
2023/06/26 05:48:04;;;;;;;11.95;8.43;;;;;;;23.12;59.57;99817.78;4469736;32;34337;-69
2023/06/26 05:50:33;;;;;;;11.70;8.23;;;;;;;23.28;58.77;99813.31;4472217;32;32852;-69
2023/06/26 05:53:03;;;;;;;11.03;8.13;;;;;;;23.52;57.35;99812.22;4465489;32;33371;-69
2023/06/26 05:55:30;;;;;;;12.70;8.50;;;;;;;23.55;56.96;99818.37;4478834;32;34314;-69
2023/06/26 05:58:02;;;;;;;11.32;8.50;;;;;;;23.43;57.30;99813.19;4479725;32;33563;-68
2023/06/26 06:00:30;;;;;;;11.65;8.68;;;;;;;23.60;56.76;99813.03;4476042;32;33072;-69
2023/06/26 06:02:57;;;;;;;11.65;8.32;;;;;;;23.49;57.03;99814.91;4473554;32;33862;-69
2023/06/26 06:05:25;;;;;;;13.23;8.23;;;;;;;23.67;56.75;99801.53;4472311;32;34483;-69
2023/06/26 06:07:53;;;;;;;11.02;8.27;;;;;;;23.74;57.33;99811.16;4477548;32;34542;-69
2023/06/26 06:10:20;;;;;;;11.57;8.77;;;;;;;23.83;56.21;99810.22;4481361;32;34095;-69
2023/06/26 06:12:48;;;;;;;12.32;8.90;;;;;;;23.93;56.45;99803.97;4471071;32;34333;-69
2023/06/26 06:15:15;;;;;;;11.52;8.63;;;;;;;24.19;56.37;99801.97;4478360;32;34537;-69
2023/06/26 06:17:43;;;;;;;10.52;7.87;;;;;;;24.26;55.71;99800.97;4477567;32;34089;-68
2023/06/26 06:20:11;;;;;;;10.80;8.20;;;;;;;24.21;55.47;99811.63;4472902;32;33065;-69
2023/06/26 06:22:39;;;;;;;10.18;7.95;;;;;;;24.59;54.70;99809.44;4481630;32;33516;-69
2023/06/26 06:25:07;;;;;;;11.68;8.52;;;;;;;24.70;54.42;99818.13;4467053;32;33227;-69
2023/06/26 06:27:34;;;;;;;10.65;8.27;;;;;;;24.76;53.91;99810.09;4479385;32;33814;-69
2023/06/26 06:30:02;;;;;;;9.55;7.47;;;;;;;25.05;53.53;99804.44;4472832;32;33099;-69
2023/06/26 06:32:33;;;;;;;9.40;7.10;;;;;;;25.11;52.96;99820.25;4476522;32;33849;-69
2023/06/26 06:35:08;;;;;;;10.57;7.50;;;;;;;25.35;52.15;99817.28;4472761;32;34432;-69
2023/06/26 06:37:37;;;;;;;11.43;7.35;;;;;;;25.36;51.82;99817.25;4473404;32;33148;-69
2023/06/26 06:40:10;;;;;;;10.18;7.20;;;;;;;25.59;51.34;99806.25;4469221;32;32851;-69
2023/06/26 06:42:38;;;;;;;10.38;7.18;;;;;;;25.80;50.45;99814.78;4468305;32;33609;-68
2023/06/26 06:45:06;;;;;;;9.95;7.43;;;;;;;25.90;49.87;99811.03;4471128;32;33887;-70
2023/06/26 06:47:34;;;;;;;10.43;7.55;;;;;;;25.68;50.13;99816.72;4476943;32;34278;-69
2023/06/26 06:50:07;;;;;;;10.43;7.15;;;;;;;25.84;50.16;99816.47;4481157;32;32754;-69
2023/06/26 06:52:40;;;;;;;8.98;6.70;;;;;;;26.40;48.90;99801.28;4474076;32;34051;-69
2023/06/26 06:55:08;;;;;;;11.73;6.90;;;;;;;26.68;47.78;99808.72;4475496;32;33343;-69
2023/06/26 06:57:38;;;;;;;11.23;7.43;;;;;;;26.83;47.05;99805.75;4471104;32;33684;-69
2023/06/26 07:00:10;;;;;;;10.50;7.10;;;;;;;27.01;47.26;99808.91;4474568;32;34035;-69
2023/06/26 07:02:38;;;;;;;10.65;6.70;;;;;;;26.88;47.11;99806.50;4468654;32;33523;-69
2023/06/26 07:05:06;;;;;;;10.32;7.05;;;;;;;27.01;46.50;99811.56;4470147;32;33868;-69
2023/06/26 07:07:34;;;;;;;9.07;6.62;;;;;;;26.96;45.45;99802.81;4468137;32;33579;-69
2023/06/26 07:10:05;;;;;;;10.35;6.57;;;;;;;27.16;46.16;99803.22;4465144;32;33517;-69
2023/06/26 07:12:33;;;;;;;11.27;7.20;;;;;;;27.39;45.84;99810.69;4456956;32;35333;-69
2023/06/26 07:15:02;;;;;;;10.52;6.95;;;;;;;27.40;45.91;99809.78;4451686;32;32676;-69
2023/06/26 07:17:31;;;;;;;10.43;6.68;;;;;;;27.51;45.65;99804.19;4469585;32;33298;-69
2023/06/26 07:19:59;;;;;;;11.82;7.18;;;;;;;27.69;45.63;99802.84;4480849;32;33114;-69
2023/06/26 07:22:27;;;;;;;10.93;6.40;;;;;;;27.90;44.83;99796.13;4481706;32;33642;-69
2023/06/26 07:24:55;;;;;;;9.77;6.47;;;;;;;28.08;43.88;99799.22;4475063;32;33426;-69
2023/06/26 07:27:22;;;;;;;10.18;6.70;;;;;;;28.29;44.13;99795.97;4473783;32;33998;-69
2023/06/26 07:29:49;;;;;;;12.07;6.80;;;;;;;28.58;42.59;99796.94;4473710;32;33291;-69
2023/06/26 07:32:17;;;;;;;9.70;6.62;;;;;;;28.46;40.50;99797.28;4478867;32;31826;-70
2023/06/26 07:34:45;;;;;;;10.10;6.90;;;;;;;28.54;41.38;99792.63;4474979;32;34400;-71
2023/06/26 07:37:12;;;;;;;10.45;6.37;;;;;;;28.41;39.87;99792.06;4450350;32;34041;-70
2023/06/26 07:39:40;;;;;;;10.27;6.60;;;;;;;28.40;41.61;99795.66;4480896;32;33468;-68
2023/06/26 07:42:07;;;;;;;11.10;6.37;;;;;;;28.75;41.57;99801.78;4481587;32;33760;-70
2023/06/26 07:44:35;;;;;;;9.88;6.57;;;;;;;28.96;41.32;99790.47;4467397;32;34725;-69
2023/06/26 07:47:03;;;;;;;10.02;7.50;;;;;;;29.45;40.21;99792.50;4471440;32;33820;-69
2023/06/26 07:49:31;;;;;;;11.43;6.70;;;;;;;29.74;37.90;99796.91;4472348;32;34098;-69
2023/06/26 07:51:58;;;;;;;10.60;6.12;;;;;;;29.67;38.98;99803.34;4466423;32;33422;-72
2023/06/26 07:54:27;;;;;;;9.68;6.40;;;;;;;29.83;39.52;99804.59;4465464;32;34522;-70
2023/06/26 07:57:01;;;;;;;10.17;6.27;;;;;;;30.11;39.42;99798.28;4474286;32;33662;-70
2023/06/26 07:59:30;;;;;;;10.90;6.60;;;;;;;30.31;39.46;99803.81;4471850;32;33491;-69
2023/06/26 08:01:57;;;;;;;9.75;6.65;;;;;;;30.71;38.24;99805.00;4471053;32;33238;-70
2023/06/26 08:04:27;;;;;;;9.40;6.80;;;;;;;30.98;37.01;99802.22;4464915;32;33804;-72
2023/06/26 08:06:56;;;;;;;10.93;6.45;;;;;;;31.03;36.24;99804.72;4453548;32;33355;-70
2023/06/26 08:09:26;;;;;;;10.63;6.43;;;;;;;31.12;36.89;99799.00;4480882;32;33333;-73
2023/06/26 08:11:54;;;;;;;9.70;6.57;;;;;;;31.26;36.52;99801.13;4480127;32;33642;-72
2023/06/26 08:14:23;;;;;;;10.53;6.87;;;;;;;31.30;36.45;99802.75;4479964;32;33221;-72
2023/06/26 08:16:51;;;;;;;14.75;6.70;;;;;;;31.73;33.85;99800.97;4471853;32;33519;-73
2023/06/26 08:19:18;;;;;;;9.45;6.78;;;;;;;31.65;34.26;99792.41;4473654;32;34282;-70
2023/06/26 08:21:46;;;;;;;10.63;6.80;;;;;;;31.41;34.93;99802.28;4467362;32;34544;-69
2023/06/26 08:24:17;;;;;;;10.45;6.28;;;;;;;31.84;35.08;99798.72;4474368;32;33676;-69
2023/06/26 08:26:46;;;;;;;9.05;6.40;;;;;;;31.67;35.34;99806.59;4457436;32;33218;-74
2023/06/26 08:29:14;;;;;;;9.18;6.32;;;;;;;32.26;33.79;99799.59;4470513;32;34066;-71
2023/06/26 08:31:43;;;;;;;8.85;6.25;;;;;;;32.14;34.49;99795.66;4470606;32;35370;-69
2023/06/26 08:34:10;;;;;;;10.90;6.90;;;;;;;31.88;34.05;99794.94;4455375;32;34585;-70
2023/06/26 08:36:38;;;;;;;10.45;6.93;;;;;;;31.81;33.62;99793.47;4472372;32;33471;-69
2023/06/26 08:39:06;;;;;;;8.85;6.30;;;;;;;31.02;34.87;99800.28;4471339;32;33901;-70
2023/06/26 08:41:33;;;;;;;7.97;6.00;;;;;;;31.09;34.99;99799.97;4469391;32;33941;-71
2023/06/26 08:44:02;;;;;;;10.18;6.68;;;;;;;31.09;34.94;99794.63;4475007;32;33605;-70
2023/06/26 08:46:30;;;;;;;9.05;6.12;;;;;;;31.02;34.48;99795.78;4480799;32;33200;-71
2023/06/26 08:49:01;;;;;;;8.60;6.40;;;;;;;30.83;35.48;99794.75;4466249;32;32664;-69
2023/06/26 08:51:30;;;;;;;9.15;6.55;;;;;;;30.26;36.99;99795.06;4470132;32;34296;-71
2023/06/26 08:53:59;;;;;;;9.20;6.60;;;;;;;30.24;37.30;99798.72;4457165;32;33269;-69
2023/06/26 08:56:37;;;;;;;8.68;6.50;;;;;;;30.07;37.18;99791.31;4466956;32;33020;-71
2023/06/26 08:59:05;;;;;;;8.98;6.62;;;;;;;29.46;39.18;99792.47;4470883;32;32570;-71
2023/06/26 09:01:33;;;;;;;9.15;6.55;;;;;;;29.57;38.38;99798.34;4442316;32;33111;-69
2023/06/26 09:04:01;;;;;;;8.90;6.43;;;;;;;29.92;37.73;99795.37;4455340;32;34035;-69
2023/06/26 09:06:30;;;;;;;9.73;6.28;;;;;;;30.11;38.36;99791.12;4480371;32;34313;-71
2023/06/26 09:08:57;;;;;;;9.20;6.55;;;;;;;30.57;36.99;99792.16;4483909;32;33007;-69
2023/06/26 09:11:24;;;;;;;9.83;6.60;;;;;;;30.81;36.82;99794.84;4474867;32;34336;-68
2023/06/26 09:13:52;;;;;;;10.55;6.37;;;;;;;31.21;36.59;99795.06;4456563;32;33383;-71
2023/06/26 09:16:24;;;;;;;9.07;6.32;;;;;;;31.37;36.24;99798.88;4456742;32;33770;-68
2023/06/26 09:18:52;;;;;;;9.18;6.65;;;;;;;31.77;35.35;99794.53;4482755;32;33431;-71
2023/06/26 09:21:21;;;;;;;10.38;6.53;;;;;;;31.76;34.72;99790.13;4474106;32;33699;-70
2023/06/26 09:23:49;;;;;;;9.50;6.55;;;;;;;31.91;34.49;99794.84;4462889;32;33249;-70
2023/06/26 09:26:17;;;;;;;8.20;6.43;;;;;;;32.22;33.89;99789.94;4472429;32;33739;-71
2023/06/26 09:28:44;;;;;;;8.65;6.03;;;;;;;32.32;33.56;99789.47;4477500;32;32976;-68
2023/06/26 09:31:12;;;;;;;8.25;6.43;;;;;;;32.57;33.07;99785.72;4466319;32;34059;-69
2023/06/26 09:33:47;;;;;;;9.18;6.25;;;;;;;32.72;33.11;99793.03;4476033;32;33566;-71
2023/06/26 09:36:24;;;;;;;7.30;6.10;;;;;;;32.92;32.57;99788.53;4481433;32;33586;-71
2023/06/26 09:38:52;;;;;;;8.83;5.90;;;;;;;32.67;32.65;99784.31;4458966;32;33110;-69
2023/06/26 09:41:20;;;;;;;8.27;6.03;;;;;;;32.48;33.62;99783.41;4475902;32;33779;-70
2023/06/26 09:43:51;;;;;;;7.60;6.00;;;;;;;32.68;33.56;99775.34;4483180;32;34428;-71
2023/06/26 09:46:26;;;;;;;8.10;6.10;;;;;;;32.81;33.79;99780.97;4468904;32;33402;-71
2023/06/26 09:49:08;;;;;;;8.68;5.85;;;;;;;32.77;33.03;99779.41;4478693;32;34125;-69
2023/06/26 09:51:37;;;;;;;8.02;5.90;;;;;;;32.95;32.46;99776.78;4475427;32;33035;-69
2023/06/26 09:54:06;;;;;;;10.13;6.00;;;;;;;33.01;32.20;99777.38;4480133;32;34556;-69
2023/06/26 09:56:34;;;;;;;8.90;6.10;;;;;;;32.76;32.71;99771.41;4477482;32;34204;-69
2023/06/26 09:59:04;;;;;;;8.95;6.32;;;;;;;32.83;33.62;99767.50;4462251;32;33735;-69
2023/06/26 10:01:32;;;;;;;8.52;6.25;;;;;;;33.00;33.29;99764.87;4473977;32;34200;-69
2023/06/26 10:04:01;;;;;;;8.10;5.75;;;;;;;33.32;32.39;99767.81;4457993;32;34414;-69
2023/06/26 10:06:36;;;;;;;8.48;6.15;;;;;;;33.52;32.56;99765.97;4468732;32;33290;-69
2023/06/26 10:09:04;;;;;;;8.57;5.90;;;;;;;33.43;31.48;99757.41;4469143;32;32695;-69
2023/06/26 10:11:47;;;;;;;7.12;5.62;;;;;;;33.76;31.08;99756.66;4466797;32;33249;-69
2023/06/26 10:14:15;;;;;;;6.37;5.30;;;;;;;33.59;31.44;99757.50;4462784;32;33052;-69
2023/06/26 10:16:46;;;;;;;7.20;5.30;;;;;;;33.81;31.53;99764.50;4480509;32;33517;-69
2023/06/26 10:19:14;;;;;;;7.37;5.18;;;;;;;33.95;31.49;99758.38;4457263;32;33131;-69
2023/06/26 10:21:42;;;;;;;7.87;5.40;;;;;;;34.06;30.42;99758.69;4468974;32;33908;-69
2023/06/26 10:24:11;;;;;;;8.57;5.62;;;;;;;33.44;30.92;99751.09;4471690;32;33853;-68
2023/06/26 10:26:42;;;;;;;8.77;5.40;;;;;;;33.21;31.19;99756.75;4473733;32;34249;-69
2023/06/26 10:29:11;;;;;;;7.10;5.37;;;;;;;32.88;31.66;99755.63;4472540;32;33628;-71
2023/06/26 10:31:40;;;;;;;8.48;5.20;;;;;;;33.08;31.98;99751.94;4461135;32;33607;-69
2023/06/26 10:34:08;;;;;;;8.85;5.47;;;;;;;32.68;31.92;99761.94;4461628;32;33895;-72
2023/06/26 10:36:36;;;;;;;7.05;5.53;;;;;;;32.20;32.84;99760.56;4474826;32;33603;-71
2023/06/26 10:39:05;;;;;;;8.70;5.40;;;;;;;32.49;32.79;99759.22;4478505;32;33973;-72
2023/06/26 10:41:38;;;;;;;8.00;5.32;;;;;;;32.37;32.75;99750.84;4478192;32;34316;-71
2023/06/26 10:44:16;;;;;;;8.00;5.00;;;;;;;32.67;32.52;99756.66;4473463;32;33772;-71
2023/06/26 10:46:58;;;;;;;7.22;4.87;;;;;;;32.98;32.20;99755.19;4461606;32;34414;-73
2023/06/26 10:49:28;;;;;;;6.93;4.82;;;;;;;33.10;31.43;99755.47;4458037;32;32555;-71
2023/06/26 10:52:01;;;;;;;6.87;4.90;;;;;;;33.20;31.60;99757.69;4467361;32;34743;-72
2023/06/26 10:54:30;;;;;;;7.43;4.87;;;;;;;33.12;31.37;99755.38;4473474;32;34343;-72
2023/06/26 10:56:58;;;;;;;7.43;4.93;;;;;;;33.39;31.50;99746.91;4463588;32;33541;-72
2023/06/26 10:59:28;;;;;;;8.57;5.30;;;;;;;33.48;31.20;99751.81;4463820;32;31756;-70
2023/06/26 11:02:04;;;;;;;9.55;5.90;;;;;;;33.00;31.34;99754.16;4477663;32;32604;-72
2023/06/26 11:04:44;;;;;;;14.80;7.45;;;;;;;33.18;31.69;99762.28;4473588;32;32662;-72
2023/06/26 11:07:23;;;;;;;9.98;5.60;;;;;;;33.04;31.65;99753.03;4472885;32;33752;-71
2023/06/26 11:10:10;;;;;;;9.90;5.37;;;;;;;32.96;30.98;99763.28;4475576;32;32781;-71
2023/06/26 11:12:41;;;;;;;7.35;5.20;;;;;;;32.53;31.91;99751.91;4476543;31;32789;-71
2023/06/26 11:15:09;;;;;;;8.68;5.05;;;;;;;32.58;31.83;99760.62;4481756;32;33672;-69
2023/06/26 11:17:37;;;;;;;8.40;5.18;;;;;;;32.88;31.45;99754.75;4467970;32;33731;-70
2023/06/26 11:20:07;;;;;;;7.20;4.97;;;;;;;32.58;32.67;99741.84;4472520;32;33070;-69
2023/06/26 11:22:36;;;;;;;7.72;4.80;;;;;;;33.26;30.82;99739.47;4474119;32;35272;-69
2023/06/26 11:25:05;;;;;;;7.20;4.90;;;;;;;33.04;31.02;99747.69;4471632;32;33546;-70
2023/06/26 11:27:43;;;;;;;7.50;4.93;;;;;;;33.28;30.29;99742.06;4473375;32;33679;-71
2023/06/26 11:30:23;;;;;;;8.30;4.90;;;;;;;33.06;30.67;99743.09;4462889;32;32924;-71
2023/06/26 11:32:50;;;;;;;6.93;5.10;;;;;;;33.48;30.00;99728.50;4474078;32;33923;-72
2023/06/26 11:35:30;;;;;;;7.12;4.68;;;;;;;33.60;30.25;99726.16;4477183;32;34142;-70